createdAt,value
2022-10-28T00:00:38.078Z,19.00
2022-10-28T00:03:04.723Z,20.42
2022-10-28T00:05:34.517Z,19.92
2022-10-28T00:08:01.248Z,16.50
2022-10-28T00:10:27.987Z,16.70
2022-10-28T00:12:54.596Z,20.40
2022-10-28T00:15:21.185Z,15.75
2022-10-28T00:17:47.943Z,20.08
2022-10-28T00:20:15.862Z,17.95
2022-10-28T00:22:43.273Z,17.90
2022-10-28T00:25:10.498Z,19.88
2022-10-28T00:27:37.159Z,14.75
2022-10-28T00:30:04.308Z,16.38
2022-10-28T00:32:32.012Z,16.48
2022-10-28T00:34:58.602Z,19.25
2022-10-28T00:37:25.313Z,19.75
2022-10-28T00:39:51.974Z,13.20
2022-10-28T00:42:22.257Z,22.92
2022-10-28T00:45:02.337Z,18.90
2022-10-28T00:47:38.034Z,18.85
2022-10-28T00:50:24.375Z,21.75
2022-10-28T00:52:56.426Z,22.83
2022-10-28T00:55:23.983Z,17.75
2022-10-28T00:57:51.164Z,19.20
2022-10-28T01:00:18.417Z,20.58
2022-10-28T01:02:48.408Z,16.25
2022-10-28T01:05:19.251Z,20.50
2022-10-28T01:07:46.030Z,20.02
2022-10-28T01:10:15.065Z,17.92
2022-10-28T01:12:48.759Z,16.95
2022-10-28T01:15:33.744Z,19.15
2022-10-28T01:18:21.805Z,23.02
2022-10-28T01:21:16.263Z,18.13
2022-10-28T01:23:53.072Z,19.80
2022-10-28T01:27:13.255Z,14.40
2022-10-28T01:30:17.041Z,23.40
2022-10-28T01:32:55.847Z,14.05
2022-10-28T01:35:37.445Z,14.55
2022-10-28T01:38:12.377Z,19.15
2022-10-28T01:40:49.369Z,19.65
2022-10-28T01:43:33.635Z,19.70
2022-10-28T01:46:05.944Z,16.80
2022-10-28T01:48:39.993Z,18.45
2022-10-28T01:51:13.179Z,15.82
2022-10-28T01:53:42.764Z,20.42
2022-10-28T01:56:14.410Z,21.27
2022-10-28T01:58:42.993Z,20.63
2022-10-28T02:01:11.126Z,19.90
2022-10-28T02:03:38.201Z,19.15
2022-10-28T02:06:12.522Z,14.35
2022-10-28T02:08:42.328Z,18.77
2022-10-28T02:11:18.000Z,17.60
2022-10-28T02:13:54.211Z,18.52
2022-10-28T02:16:49.370Z,16.52
2022-10-28T02:19:33.813Z,17.75
2022-10-28T02:22:00.496Z,19.08
2022-10-28T02:24:56.938Z,17.75
2022-10-28T02:27:42.504Z,16.85
2022-10-28T02:30:14.171Z,23.33
2022-10-28T02:32:47.020Z,17.20
2022-10-28T02:35:18.747Z,13.60
2022-10-28T02:37:48.715Z,19.77
2022-10-28T02:40:21.444Z,14.73
2022-10-28T02:42:53.204Z,20.13
2022-10-28T02:45:25.316Z,15.45
2022-10-28T02:47:57.066Z,16.08
2022-10-28T02:50:30.640Z,21.58
2022-10-28T02:55:33.889Z,14.00
2022-10-28T02:58:00.501Z,16.45
2022-10-28T03:00:27.099Z,19.45
2022-10-28T03:02:54.203Z,20.30
2022-10-28T03:05:20.873Z,18.85
2022-10-28T03:07:47.488Z,20.80
2022-10-28T03:10:14.150Z,21.90
2022-10-28T03:12:40.996Z,15.57
2022-10-28T03:15:08.179Z,17.75
2022-10-28T03:17:34.867Z,17.52
2022-10-28T03:20:01.529Z,16.40
2022-10-28T03:22:28.198Z,15.68
2022-10-28T03:24:55.021Z,13.57
2022-10-28T03:27:21.693Z,16.65
2022-10-28T03:29:48.253Z,15.60
2022-10-28T03:32:14.846Z,18.15
2022-10-28T03:34:41.489Z,21.17
2022-10-28T03:37:08.375Z,16.67
2022-10-28T03:39:34.950Z,18.58
2022-10-28T03:42:01.589Z,14.80
2022-10-28T03:44:28.225Z,19.92
2022-10-28T03:46:54.850Z,19.33
2022-10-28T03:49:21.660Z,16.58
2022-10-28T03:51:48.225Z,16.35
2022-10-28T03:54:14.734Z,17.20
2022-10-28T03:56:41.482Z,18.13
2022-10-28T03:59:13.185Z,18.08
2022-10-28T04:01:42.161Z,16.13
2022-10-28T04:04:08.815Z,17.00
2022-10-28T04:06:35.603Z,15.73
2022-10-28T04:09:03.297Z,15.82
2022-10-28T04:11:29.949Z,15.27
2022-10-28T04:13:56.515Z,13.95
2022-10-28T04:16:23.109Z,12.60
2022-10-28T04:18:49.712Z,16.60
2022-10-28T04:21:17.308Z,15.82
2022-10-28T04:23:43.853Z,19.58
2022-10-28T04:26:10.375Z,16.20
2022-10-28T04:28:36.949Z,16.25
2022-10-28T04:31:03.640Z,13.88
2022-10-28T04:33:30.489Z,16.42
2022-10-28T04:35:57.102Z,15.45
2022-10-28T04:40:52.153Z,17.83
2022-10-28T04:43:18.736Z,14.00
2022-10-28T04:45:47.356Z,19.48
2022-10-28T04:48:13.993Z,10.70
2022-10-28T04:50:40.865Z,14.15
2022-10-28T04:53:11.148Z,18.35
2022-10-28T04:55:37.970Z,11.45
2022-10-28T04:58:05.342Z,11.15
2022-10-28T05:00:32.049Z,20.90
2022-10-28T05:03:01.688Z,18.23
2022-10-28T05:05:28.688Z,10.32
2022-10-28T05:07:55.917Z,17.55
2022-10-28T05:10:22.855Z,9.98
2022-10-28T05:12:49.410Z,12.57
2022-10-28T05:15:16.695Z,15.25
2022-10-28T05:17:44.750Z,18.27
2022-10-28T05:20:12.051Z,13.68
2022-10-28T05:22:44.765Z,17.42
2022-10-28T05:25:11.412Z,15.63
2022-10-28T05:27:38.091Z,16.23
2022-10-28T05:30:05.193Z,16.80
2022-10-28T05:32:31.766Z,10.00
2022-10-28T05:34:58.568Z,13.70
2022-10-28T05:37:25.106Z,15.63
2022-10-28T05:39:51.681Z,10.88
2022-10-28T05:42:18.168Z,15.20
2022-10-28T05:44:44.783Z,14.02
2022-10-28T05:47:11.581Z,13.82
2022-10-28T05:49:38.174Z,11.10
2022-10-28T05:52:05.080Z,14.48
2022-10-28T05:54:31.722Z,14.93
2022-10-28T05:56:58.380Z,16.08
2022-10-28T05:59:25.111Z,13.25
2022-10-28T06:01:51.688Z,12.57
2022-10-28T06:04:18.779Z,14.35
2022-10-28T06:06:45.359Z,12.48
2022-10-28T06:09:11.925Z,13.40
2022-10-28T06:11:36.974Z,12.88
2022-10-28T06:14:03.825Z,12.85
2022-10-28T06:16:30.592Z,17.25
2022-10-28T06:18:57.282Z,19.17
2022-10-28T06:21:23.867Z,15.57
2022-10-28T06:23:51.181Z,16.73
2022-10-28T06:26:17.856Z,13.85
2022-10-28T06:28:47.230Z,14.68
2022-10-28T06:31:13.993Z,10.18
2022-10-28T06:33:40.798Z,17.60
2022-10-28T06:36:07.733Z,18.20
2022-10-28T06:38:34.320Z,17.20
2022-10-28T06:41:00.779Z,12.75
2022-10-28T06:43:27.415Z,20.83
2022-10-28T06:45:55.211Z,11.63
2022-10-28T06:48:23.927Z,12.18
2022-10-28T06:50:50.528Z,17.08
2022-10-28T06:53:17.122Z,15.93
2022-10-28T06:55:48.695Z,15.52
2022-10-28T06:58:15.590Z,16.40
2022-10-28T07:00:42.355Z,12.38
2022-10-28T07:03:10.759Z,19.38
2022-10-28T07:05:37.568Z,23.80
2022-10-28T07:08:04.600Z,16.85
2022-10-28T07:10:31.188Z,14.30
2022-10-28T07:12:58.110Z,16.20
2022-10-28T07:15:25.200Z,21.42
2022-10-28T07:17:56.770Z,18.52
2022-10-28T07:20:25.043Z,12.20
2022-10-28T07:23:02.053Z,14.73
2022-10-28T07:25:30.814Z,18.17
2022-10-28T07:27:58.640Z,19.02
2022-10-28T07:30:25.964Z,19.65
2022-10-28T07:32:52.911Z,13.15
2022-10-28T07:35:20.334Z,12.25
2022-10-28T07:37:47.194Z,20.90
2022-10-28T07:40:15.228Z,16.75
2022-10-28T07:42:41.846Z,17.88
2022-10-28T07:45:08.775Z,11.98
2022-10-28T07:47:35.399Z,12.75
2022-10-28T07:50:02.196Z,23.63
2022-10-28T07:52:28.807Z,12.35
2022-10-28T07:54:55.403Z,10.48
2022-10-28T07:57:21.949Z,14.80
2022-10-28T07:59:48.929Z,15.43
2022-10-28T08:02:20.861Z,16.00
2022-10-28T08:04:47.794Z,16.92
2022-10-28T08:07:15.373Z,14.50
2022-10-28T08:09:42.032Z,11.60
2022-10-28T08:12:09.725Z,14.85
2022-10-28T08:14:36.289Z,16.25
2022-10-28T08:17:02.946Z,12.73
2022-10-28T08:19:29.540Z,20.65
2022-10-28T08:21:56.205Z,15.85
2022-10-28T08:24:23.123Z,15.50
2022-10-28T08:26:49.909Z,16.25
2022-10-28T08:29:16.674Z,14.18
2022-10-28T08:31:43.419Z,17.30
2022-10-28T08:34:11.358Z,12.23
2022-10-28T08:36:37.959Z,14.20
2022-10-28T08:39:04.725Z,16.08
2022-10-28T08:41:38.404Z,14.50
2022-10-28T08:44:11.092Z,15.55
2022-10-28T08:46:37.597Z,12.80
2022-10-28T08:49:11.939Z,11.23
2022-10-28T08:52:14.143Z,15.43
2022-10-28T08:54:50.496Z,15.63
2022-10-28T08:57:27.404Z,10.05
2022-10-28T08:59:54.901Z,11.55
2022-10-28T09:02:24.739Z,16.30
2022-10-28T09:05:21.579Z,17.33
2022-10-28T09:07:48.631Z,15.30
2022-10-28T09:10:17.911Z,13.10
2022-10-28T09:13:31.400Z,14.10
2022-10-28T09:16:15.229Z,11.70
2022-10-28T09:18:50.288Z,9.40
2022-10-28T09:21:37.444Z,12.70
2022-10-28T09:24:17.085Z,13.88
2022-10-28T09:27:00.427Z,11.77
2022-10-28T09:29:49.485Z,13.38
2022-10-28T09:33:01.077Z,12.95
2022-10-28T09:35:32.085Z,17.30
2022-10-28T09:38:23.304Z,12.27
2022-10-28T09:40:55.277Z,14.43
2022-10-28T09:43:35.253Z,12.50
2022-10-28T09:46:13.743Z,14.55
2022-10-28T09:48:52.194Z,13.35
2022-10-28T09:51:43.315Z,16.27
2022-10-28T09:54:11.490Z,14.98
2022-10-28T09:56:38.710Z,18.08
2022-10-28T09:59:05.896Z,15.77
2022-10-28T10:01:34.998Z,15.10
2022-10-28T10:04:03.175Z,12.75
2022-10-28T10:06:37.371Z,13.63
2022-10-28T10:09:04.874Z,11.40
2022-10-28T10:11:41.423Z,14.25
2022-10-28T10:14:13.265Z,15.52
2022-10-28T10:16:52.659Z,14.45
2022-10-28T10:19:19.239Z,15.38
2022-10-28T10:21:48.298Z,14.27
2022-10-28T10:24:35.215Z,14.68
2022-10-28T10:27:10.999Z,15.85
2022-10-28T10:29:44.858Z,15.68
2022-10-28T10:32:31.787Z,14.68
2022-10-28T10:35:06.968Z,15.32
2022-10-28T10:37:35.497Z,15.73
2022-10-28T10:40:33.671Z,10.27
2022-10-28T10:43:19.208Z,15.18
2022-10-28T10:46:00.533Z,8.40
2022-10-28T10:48:28.868Z,11.00
2022-10-28T10:50:56.325Z,8.77
2022-10-28T10:53:28.964Z,15.07
2022-10-28T10:56:10.841Z,17.10
2022-10-28T10:58:49.692Z,15.45
2022-10-28T11:01:21.570Z,17.33
2022-10-28T11:04:05.993Z,12.82
2022-10-28T11:06:36.542Z,11.27
2022-10-28T11:09:19.660Z,15.50
2022-10-28T11:11:46.376Z,14.57
2022-10-28T11:14:13.395Z,11.90
2022-10-28T11:16:50.620Z,23.13
2022-10-28T11:19:26.633Z,18.27
2022-10-28T11:22:21.906Z,17.13
2022-10-28T11:25:26.712Z,18.60
2022-10-28T11:28:33.473Z,16.00
2022-10-28T11:31:15.354Z,12.98
2022-10-28T11:34:13.480Z,16.45
2022-10-28T11:36:48.479Z,11.45
2022-10-28T11:39:19.864Z,11.93
2022-10-28T11:41:55.881Z,12.57
2022-10-28T11:44:41.592Z,12.25
2022-10-28T11:47:45.815Z,13.02
2022-10-28T11:50:43.585Z,12.32
2022-10-28T11:53:50.685Z,11.13
2022-10-28T11:56:39.316Z,11.85
2022-10-28T11:59:11.787Z,12.63
2022-10-28T12:01:50.681Z,10.63
2022-10-28T12:04:19.218Z,17.60
2022-10-28T12:07:07.791Z,14.35
2022-10-28T12:09:52.831Z,13.77
2022-10-28T12:12:31.129Z,43.03
2022-10-28T12:15:13.804Z,19.17
2022-10-28T12:18:03.907Z,16.98
2022-10-28T12:20:59.313Z,15.70
2022-10-28T12:23:29.452Z,13.30
2022-10-28T12:25:58.969Z,13.25
2022-10-28T12:28:49.872Z,14.38
2022-10-28T12:31:24.505Z,15.23
2022-10-28T12:33:56.670Z,16.30
2022-10-28T12:36:52.442Z,15.27
2022-10-28T12:39:22.052Z,24.67
2022-10-28T12:41:57.752Z,12.20
2022-10-28T12:44:26.343Z,19.10
2022-10-28T12:47:28.334Z,16.08
2022-10-28T12:50:10.843Z,10.38
2022-10-28T12:53:17.324Z,18.60
2022-10-28T12:56:01.533Z,13.38
2022-10-28T12:58:35.139Z,15.55
2022-10-28T13:01:10.582Z,10.40
2022-10-28T13:03:37.437Z,14.55
2022-10-28T13:06:19.050Z,13.75
2022-10-28T13:09:11.353Z,16.90
2022-10-28T13:12:08.841Z,17.88
2022-10-28T13:14:57.471Z,12.75
2022-10-28T13:17:50.925Z,16.13
2022-10-28T13:20:20.678Z,11.45
2022-10-28T13:23:22.911Z,14.88
2022-10-28T13:26:22.074Z,19.13
2022-10-28T13:28:52.622Z,15.55
2022-10-28T13:31:20.404Z,12.55
2022-10-28T13:33:59.077Z,12.98
2022-10-28T13:36:28.777Z,14.40
2022-10-28T13:39:01.747Z,17.42
2022-10-28T13:41:37.682Z,11.90
2022-10-28T13:44:10.825Z,12.27
2022-10-28T13:46:59.265Z,14.93
2022-10-28T13:49:26.890Z,14.80
2022-10-28T13:52:19.119Z,13.85
2022-10-28T13:54:45.919Z,16.58
2022-10-28T13:57:34.808Z,11.40
2022-10-28T14:00:02.926Z,12.77
2022-10-28T14:02:38.916Z,14.23
2022-10-28T14:05:11.713Z,11.48
2022-10-28T14:07:53.567Z,14.27
2022-10-28T14:10:25.072Z,18.02
2022-10-28T14:12:56.235Z,15.80
2022-10-28T14:15:28.003Z,12.48
2022-10-28T14:18:22.658Z,10.30
2022-10-28T14:20:49.837Z,15.40
2022-10-28T14:23:22.473Z,15.27
2022-10-28T14:25:54.565Z,11.73
2022-10-28T14:28:27.481Z,14.10
2022-10-28T14:31:12.953Z,11.15
2022-10-28T14:33:42.539Z,10.95
2022-10-28T14:36:21.306Z,13.13
2022-10-28T14:39:03.309Z,17.67
2022-10-28T14:42:01.085Z,16.10
2022-10-28T14:44:51.134Z,14.48
2022-10-28T14:47:39.662Z,12.10
2022-10-28T14:50:25.007Z,10.15
2022-10-28T14:52:54.093Z,12.85
2022-10-28T14:55:25.934Z,14.57
2022-10-28T14:57:53.376Z,12.55
2022-10-28T15:00:25.220Z,14.30
2022-10-28T15:02:52.538Z,9.52
2022-10-28T15:05:20.875Z,9.73
2022-10-28T15:07:48.426Z,14.40
2022-10-28T15:10:38.273Z,15.68
2022-10-28T15:13:15.583Z,13.85
2022-10-28T15:15:52.105Z,11.85
2022-10-28T15:18:22.355Z,12.43
2022-10-28T15:20:50.127Z,13.57
2022-10-28T15:23:18.757Z,13.57
2022-10-28T15:25:45.725Z,16.02
2022-10-28T15:28:13.664Z,13.02
2022-10-28T15:30:46.397Z,13.23
2022-10-28T15:35:48.480Z,16.00
2022-10-28T15:38:21.362Z,15.10
2022-10-28T15:40:48.427Z,13.25
2022-10-28T15:43:23.219Z,11.85
2022-10-28T15:45:50.035Z,16.10
2022-10-28T15:48:27.570Z,14.10
2022-10-28T15:51:17.540Z,23.08
2022-10-28T15:53:45.426Z,14.93
2022-10-28T15:56:15.140Z,24.65
2022-10-28T15:58:44.157Z,16.20
2022-10-28T16:01:34.195Z,10.88
2022-10-28T16:04:01.266Z,22.10
2022-10-28T16:06:36.859Z,14.15
2022-10-28T16:09:09.658Z,16.48
2022-10-28T16:11:45.706Z,21.20
2022-10-28T16:14:37.670Z,21.38
2022-10-28T16:17:18.136Z,20.42
2022-10-28T16:19:51.104Z,12.43
2022-10-28T16:22:19.314Z,13.40
2022-10-28T16:24:46.189Z,16.30
2022-10-28T16:27:20.681Z,12.48
2022-10-28T16:29:47.924Z,20.73
2022-10-28T16:32:16.115Z,11.35
2022-10-28T16:34:43.197Z,17.25
2022-10-28T16:37:23.963Z,13.45
2022-10-28T16:39:50.977Z,18.33
2022-10-28T16:42:18.911Z,19.02
2022-10-28T16:44:45.671Z,17.75
2022-10-28T16:47:14.388Z,11.98
2022-10-28T16:49:41.880Z,18.50
2022-10-28T16:52:15.449Z,15.60
2022-10-28T16:54:42.510Z,17.15
2022-10-28T16:57:09.365Z,18.08
2022-10-28T16:59:36.259Z,22.08
2022-10-28T17:02:03.346Z,16.80
2022-10-28T17:04:30.895Z,17.45
2022-10-28T17:06:59.236Z,15.43
2022-10-28T17:09:26.056Z,14.25
2022-10-28T17:11:53.729Z,15.40
2022-10-28T17:14:20.598Z,19.30
2022-10-28T17:16:47.363Z,15.85
2022-10-28T17:19:16.904Z,17.35
2022-10-28T17:21:55.893Z,17.02
2022-10-28T17:24:25.594Z,14.40
2022-10-28T17:30:45.098Z,17.13
2022-10-28T17:33:21.497Z,18.52
2022-10-28T17:35:49.829Z,15.15
2022-10-28T17:38:17.174Z,13.40
2022-10-28T17:40:47.185Z,18.92
2022-10-28T17:43:15.368Z,12.65
2022-10-28T17:45:43.744Z,19.30
2022-10-28T17:48:11.270Z,15.82
2022-10-28T17:50:38.561Z,17.17
2022-10-28T17:53:05.494Z,20.83
2022-10-28T17:55:32.750Z,17.00
2022-10-28T17:58:02.966Z,14.50
2022-10-28T18:00:30.526Z,17.15
2022-10-28T18:02:59.955Z,23.42
2022-10-28T18:05:27.836Z,21.52
2022-10-28T18:07:55.094Z,16.63
2022-10-28T18:10:22.126Z,17.08
2022-10-28T18:12:52.432Z,15.68
2022-10-28T18:15:19.563Z,17.52
2022-10-28T18:17:51.462Z,22.85
2022-10-28T18:20:20.332Z,17.52
2022-10-28T18:22:47.081Z,22.13
2022-10-28T18:25:14.008Z,16.60
2022-10-28T18:27:41.302Z,15.23
2022-10-28T18:30:08.727Z,20.33
2022-10-28T18:32:35.443Z,19.95
2022-10-28T18:35:02.261Z,18.92
2022-10-28T18:37:29.017Z,15.82
2022-10-28T18:39:55.728Z,20.15
2022-10-28T18:42:22.476Z,22.02
2022-10-28T18:44:52.434Z,24.25
2022-10-28T18:47:19.399Z,21.63
2022-10-28T18:49:46.286Z,24.92
2022-10-28T18:52:13.174Z,25.77
2022-10-28T18:54:45.424Z,21.20
2022-10-28T18:57:13.746Z,23.25
2022-10-28T19:00:05.156Z,23.48
2022-10-28T19:02:28.866Z,28.35
2022-10-28T19:04:55.869Z,25.95
2022-10-28T19:07:22.980Z,19.02
2022-10-28T19:09:49.953Z,20.58
2022-10-28T19:12:17.020Z,21.00
2022-10-28T19:14:43.927Z,23.58
2022-10-28T19:17:12.014Z,22.27
2022-10-28T19:19:39.486Z,22.83
2022-10-28T19:22:08.262Z,23.25
2022-10-28T19:24:35.262Z,24.08
2022-10-28T19:27:04.653Z,25.58
2022-10-28T19:29:33.542Z,19.20
2022-10-28T19:32:00.730Z,24.40
2022-10-28T19:34:28.003Z,24.02
2022-10-28T19:36:55.037Z,21.98
2022-10-28T19:39:21.792Z,30.15
2022-10-28T19:41:50.437Z,24.33
2022-10-28T19:44:17.151Z,32.50
2022-10-28T19:46:44.105Z,25.27
2022-10-28T19:49:11.056Z,27.08
2022-10-28T19:51:41.235Z,23.98
2022-10-28T19:54:11.783Z,27.75
2022-10-28T19:56:39.462Z,20.45
2022-10-28T19:59:07.136Z,21.52
2022-10-28T20:01:38.370Z,18.73
2022-10-28T20:04:06.384Z,25.65
2022-10-28T20:06:37.118Z,22.55
2022-10-28T20:09:04.684Z,22.45
2022-10-28T20:11:34.397Z,24.27
2022-10-28T20:14:08.922Z,31.63
2022-10-28T20:16:36.321Z,25.23
2022-10-28T20:19:03.644Z,34.05
2022-10-28T20:21:34.483Z,29.63
2022-10-28T20:24:01.514Z,27.85
2022-10-28T20:26:33.235Z,23.95
2022-10-28T20:29:03.070Z,24.10
2022-10-28T20:31:32.404Z,29.05
2022-10-28T20:34:03.587Z,26.38
2022-10-28T20:36:35.485Z,26.13
2022-10-28T20:39:11.401Z,22.05
2022-10-28T20:41:39.886Z,24.20
2022-10-28T20:44:10.112Z,22.80
2022-10-28T20:46:37.387Z,23.33
2022-10-28T20:49:05.122Z,27.52
2022-10-28T20:51:33.549Z,29.15
2022-10-28T20:54:02.020Z,30.23
2022-10-28T20:56:40.232Z,25.92
2022-10-28T20:59:07.987Z,31.63
2022-10-28T21:01:38.022Z,24.85
2022-10-28T21:04:08.887Z,30.23
2022-10-28T21:06:36.668Z,27.05
2022-10-28T21:09:05.814Z,21.90
2022-10-28T21:11:35.417Z,32.63
2022-10-28T21:14:02.608Z,25.00
2022-10-28T21:16:30.709Z,24.15
2022-10-28T21:18:59.426Z,26.95
2022-10-28T21:21:29.689Z,25.13
2022-10-28T21:23:56.534Z,26.85
2022-10-28T21:26:23.530Z,25.58
2022-10-28T21:28:52.003Z,24.98
2022-10-28T21:31:20.063Z,20.35
2022-10-28T21:33:47.590Z,26.60
2022-10-28T21:36:16.986Z,27.60
2022-10-28T21:38:44.603Z,26.17
2022-10-28T21:41:21.709Z,20.48
2022-10-28T21:43:50.345Z,26.25
2022-10-28T21:46:21.754Z,27.42
2022-10-28T21:48:49.112Z,34.75
2022-10-28T21:51:17.151Z,25.70
2022-10-28T21:53:45.162Z,36.78
2022-10-28T21:56:20.070Z,31.17
2022-10-28T21:58:52.348Z,33.08
2022-10-28T22:01:24.428Z,35.80
2022-10-28T22:03:54.685Z,32.05
2022-10-28T22:06:24.696Z,24.85
2022-10-28T22:08:59.440Z,30.30
2022-10-28T22:11:31.307Z,26.25
2022-10-28T22:14:00.659Z,26.83
2022-10-28T22:16:29.824Z,34.38
2022-10-28T22:18:58.907Z,26.15
2022-10-28T22:21:28.324Z,23.75
2022-10-28T22:23:55.456Z,27.25
2022-10-28T22:26:25.475Z,36.70
2022-10-28T22:28:55.843Z,27.10
2022-10-28T22:31:25.629Z,33.42
2022-10-28T22:33:53.155Z,25.50
2022-10-28T22:36:23.010Z,23.15
2022-10-28T22:38:50.535Z,29.73
2022-10-28T22:41:26.346Z,29.08
2022-10-28T22:43:55.813Z,25.63
2022-10-28T22:46:28.064Z,30.50
2022-10-28T22:48:55.239Z,30.77
2022-10-28T22:51:22.729Z,36.22
2022-10-28T22:53:49.870Z,27.80
2022-10-28T22:56:21.911Z,27.95
2022-10-28T22:58:53.865Z,27.92
2022-10-28T23:01:21.690Z,22.25
2022-10-28T23:03:50.906Z,31.17
2022-10-28T23:06:21.075Z,25.25
2022-10-28T23:08:48.158Z,29.13
2022-10-28T23:11:17.875Z,32.53
2022-10-28T23:13:44.816Z,26.73
2022-10-28T23:16:15.891Z,27.15
2022-10-28T23:18:43.867Z,29.38
2022-10-28T23:21:19.155Z,33.00
2022-10-28T23:23:51.108Z,27.17
2022-10-28T23:26:21.735Z,28.08
2022-10-28T23:28:56.709Z,33.30
2022-10-28T23:31:23.680Z,36.40
2022-10-28T23:33:51.379Z,23.15
2022-10-28T23:36:19.224Z,27.63
2022-10-28T23:38:46.060Z,32.78
2022-10-28T23:41:16.244Z,30.92
2022-10-28T23:43:43.148Z,27.10
2022-10-28T23:46:11.647Z,30.27
2022-10-28T23:48:38.842Z,23.58
2022-10-28T23:51:06.419Z,20.92
2022-10-28T23:53:33.684Z,27.38
2022-10-28T23:56:00.669Z,27.10
2022-10-28T23:58:27.484Z,29.13
